Time;durP1;ratioP1;P1;durP2;ratioP2;P2;SDS_P1;SDS_P2;PMS_P1;PMS_P2;Temp;Humidity;BMP_temperature;BMP_pressure;BME280_temperature;BME280_humidity;BME280_pressure;Samples;Min_cycle;Max_cycle;Signal;HPM_P1;HPM_P2
2022/07/21 00:00:56;;;;;;;16.93;10.90;;;;;;;24.29;83.16;100707.00;5073066;28;20215;-65
2022/07/21 00:03:23;;;;;;;13.13;11.60;;;;;;;24.30;83.19;100700.50;5072485;28;20211;-65
2022/07/21 00:05:53;;;;;;;13.95;10.13;;;;;;;24.28;82.39;100702.63;5072995;28;20303;-65
2022/07/21 00:08:21;;;;;;;11.70;9.50;;;;;;;24.23;82.49;100709.81;5059263;28;20885;-65
2022/07/21 00:10:49;;;;;;;12.40;10.85;;;;;;;24.29;82.15;100723.25;5073137;28;20219;-66
2022/07/21 00:13:16;;;;;;;15.18;10.90;;;;;;;24.34;81.51;100726.09;5072079;28;20306;-65
2022/07/21 00:15:44;;;;;;;11.57;9.93;;;;;;;24.46;79.06;100730.69;5072754;28;20217;-65
2022/07/21 00:18:12;;;;;;;11.70;9.77;;;;;;;24.50;77.94;100740.03;5072812;28;20298;-65
2022/07/21 00:20:40;;;;;;;14.48;10.43;;;;;;;24.58;76.76;100753.25;5063458;28;20203;-65
2022/07/21 00:23:10;;;;;;;10.90;9.00;;;;;;;24.59;75.52;100754.91;5056949;28;20299;-65
2022/07/21 00:25:39;;;;;;;14.80;9.97;;;;;;;24.51;76.02;100752.53;5070917;28;20235;-65
2022/07/21 00:28:07;;;;;;;13.95;10.38;;;;;;;24.36;76.11;100756.47;5072018;28;20747;-65
2022/07/21 00:30:35;;;;;;;16.90;11.63;;;;;;;24.37;77.26;100768.97;5071791;28;20221;-65
2022/07/21 00:33:03;;;;;;;15.35;11.85;;;;;;;24.41;77.08;100773.94;5071683;28;20231;-65
2022/07/21 00:35:32;;;;;;;15.27;12.27;;;;;;;24.46;77.00;100782.19;5072031;28;20211;-65
2022/07/21 00:38:02;;;;;;;15.88;14.25;;;;;;;24.51;75.80;100782.34;5071742;28;20307;-64
2022/07/21 00:40:32;;;;;;;19.70;14.38;;;;;;;24.52;75.68;100770.44;5073131;28;20566;-64
2022/07/21 00:42:59;;;;;;;21.87;17.43;;;;;;;24.47;75.66;100770.31;5072576;28;20211;-64
2022/07/21 00:45:27;;;;;;;20.98;17.08;;;;;;;24.44;75.97;100779.75;5072717;28;20218;-65
2022/07/21 00:47:55;;;;;;;20.05;16.73;;;;;;;24.32;76.21;100782.41;5072714;28;20318;-65
2022/07/21 00:50:23;;;;;;;22.63;17.53;;;;;;;24.08;77.93;100775.22;5072109;28;20218;-64
2022/07/21 00:52:51;;;;;;;21.40;16.80;;;;;;;23.98;79.23;100783.06;5069159;28;20207;-64
2022/07/21 00:55:21;;;;;;;24.90;18.40;;;;;;;23.88;80.07;100780.91;5061916;28;20214;-65
2022/07/21 00:57:51;;;;;;;19.57;17.07;;;;;;;23.84;81.25;100768.84;5071977;28;20249;-65
2022/07/21 01:00:21;;;;;;;24.67;19.13;;;;;;;23.83;81.62;100779.94;5072128;28;20211;-65
2022/07/21 01:02:49;;;;;;;23.63;18.97;;;;;;;23.78;81.75;100783.31;5071953;28;20207;-65
2022/07/21 01:05:18;;;;;;;22.93;18.93;;;;;;;23.80;81.90;100788.50;5072109;28;20211;-65
2022/07/21 01:07:48;;;;;;;24.80;19.17;;;;;;;23.82;81.89;100786.41;5072683;28;20737;-65
2022/07/21 01:10:17;;;;;;;21.37;19.03;;;;;;;23.76;81.79;100788.13;5072464;28;20208;-65
2022/07/21 01:12:45;;;;;;;21.03;17.13;;;;;;;23.78;83.29;100793.31;5071948;28;20207;-65
2022/07/21 01:15:16;;;;;;;23.47;17.67;;;;;;;23.86;82.46;100788.41;5071331;28;20235;-65
2022/07/21 01:17:45;;;;;;;22.60;17.80;;;;;;;23.91;81.51;100791.28;5069508;28;20298;-65
2022/07/21 01:20:17;;;;;;;20.20;17.03;;;;;;;23.99;81.19;100800.97;5070254;28;20211;-65
2022/07/21 01:22:49;;;;;;;22.17;18.83;;;;;;;24.04;80.98;100795.69;5059003;28;20242;-65
2022/07/21 01:25:19;;;;;;;22.60;17.97;;;;;;;24.02;80.71;100797.78;5070793;28;20216;-64
2022/07/21 01:27:47;;;;;;;24.60;18.67;;;;;;;23.99;80.88;100793.69;5071651;28;20325;-63
2022/07/21 01:30:16;;;;;;;21.30;18.33;;;;;;;24.00;81.06;100794.50;5072351;28;20306;-63
2022/07/21 01:32:43;;;;;;;24.23;19.20;;;;;;;23.97;81.05;100797.66;5071268;28;20219;-64
2022/07/21 01:35:14;;;;;;;21.13;18.33;;;;;;;23.91;81.42;100795.88;5070405;28;20674;-63
2022/07/21 01:37:43;;;;;;;21.50;19.15;;;;;;;23.87;82.32;100802.78;5071944;28;20239;-64
2022/07/21 01:42:59;;;;;;;24.42;19.52;;;;;;;23.81;82.56;100814.53;5057126;28;20290;-65
2022/07/21 01:45:28;;;;;;;22.97;19.77;;;;;;;23.83;82.67;100815.13;5070882;28;20238;-65
2022/07/21 01:47:56;;;;;;;23.53;18.93;;;;;;;23.89;82.51;100808.81;5068087;28;20204;-65
2022/07/21 01:50:26;;;;;;;22.00;18.87;;;;;;;24.01;81.80;100812.41;5059747;28;20207;-65
2022/07/21 01:52:55;;;;;;;23.07;19.63;;;;;;;23.96;81.35;100812.25;5071725;28;20718;-65
2022/07/21 01:55:25;;;;;;;22.05;18.60;;;;;;;23.99;81.30;100820.78;5071020;28;20242;-65
2022/07/21 01:57:53;;;;;;;24.37;18.40;;;;;;;24.08;81.15;100817.75;5070840;28;20745;-65
2022/07/21 02:00:21;;;;;;;20.40;17.77;;;;;;;24.06;80.90;100814.44;5070923;28;20298;-65
2022/07/21 02:02:49;;;;;;;23.73;18.30;;;;;;;24.04;80.84;100821.94;5069813;28;20203;-65
2022/07/21 02:05:17;;;;;;;21.30;17.73;;;;;;;24.07;80.86;100826.91;5070725;28;20239;-65
2022/07/21 02:07:44;;;;;;;20.58;18.13;;;;;;;24.12;80.15;100824.34;5070639;28;20234;-65
2022/07/21 02:10:12;;;;;;;21.20;17.73;;;;;;;24.14;79.81;100833.06;5081897;28;20667;-65
2022/07/21 02:12:41;;;;;;;22.20;17.40;;;;;;;24.19;80.84;100831.31;5087046;28;20294;-65
2022/07/21 02:15:10;;;;;;;21.97;18.43;;;;;;;24.14;79.65;100823.06;5072438;28;20207;-65
2022/07/21 02:17:38;;;;;;;21.47;17.63;;;;;;;24.09;80.19;100828.34;5083145;28;20211;-65
2022/07/21 02:20:07;;;;;;;21.77;17.87;;;;;;;24.12;79.52;100825.16;5072145;28;20294;-65
2022/07/21 02:22:34;;;;;;;22.43;17.43;;;;;;;24.09;80.46;100830.25;5077004;28;20218;-65
2022/07/21 02:25:02;;;;;;;21.38;16.48;;;;;;;24.13;79.72;100832.25;5081583;28;20686;-65
2022/07/21 02:27:30;;;;;;;20.50;16.10;;;;;;;24.17;79.80;100832.63;5090541;28;20237;-65
2022/07/21 02:29:59;;;;;;;19.15;16.95;;;;;;;24.18;79.28;100839.72;5090175;28;20297;-65
2022/07/21 02:32:27;;;;;;;18.20;15.50;;;;;;;24.22;78.96;100833.63;5085007;28;20262;-65
2022/07/21 02:34:54;;;;;;;20.43;16.10;;;;;;;24.29;79.43;100836.22;5090456;28;20233;-65
2022/07/21 02:37:22;;;;;;;17.17;14.87;;;;;;;24.32;78.61;100841.22;5090653;28;20684;-64
2022/07/21 02:39:50;;;;;;;18.87;15.33;;;;;;;24.30;78.18;100843.31;5080377;28;20717;-65
2022/07/21 02:42:18;;;;;;;20.92;15.82;;;;;;;24.33;77.45;100849.09;5089995;28;20203;-64
2022/07/21 02:44:45;;;;;;;18.45;15.40;;;;;;;24.37;77.41;100852.16;5077873;28;20225;-64
2022/07/21 02:47:15;;;;;;;18.83;15.45;;;;;;;24.42;77.65;100848.78;5080738;28;20691;-64
2022/07/21 02:49:44;;;;;;;19.42;14.95;;;;;;;24.40;77.72;100853.59;5090490;28;20704;-64
2022/07/21 02:52:12;;;;;;;15.23;13.63;;;;;;;24.37;77.31;100850.28;5081155;28;20569;-64
2022/07/21 02:54:40;;;;;;;19.48;14.35;;;;;;;24.33;77.75;100851.81;5074798;28;20593;-64
2022/07/21 02:57:07;;;;;;;20.13;15.53;;;;;;;24.31;76.95;100855.81;5090544;28;20233;-63
2022/07/21 02:59:41;;;;;;;21.27;14.85;;;;;;;24.28;77.01;100862.50;5090644;28;20248;-64
2022/07/21 03:02:09;;;;;;;18.55;13.93;;;;;;;24.16;77.80;100858.06;5092176;28;20299;-64
2022/07/21 03:04:38;;;;;;;22.03;14.10;;;;;;;24.18;77.89;100862.22;5094903;28;20302;-64
2022/07/21 03:07:05;;;;;;;21.57;14.43;;;;;;;24.18;79.20;100854.09;5094513;28;20643;-64
2022/07/21 03:09:33;;;;;;;16.87;14.47;;;;;;;24.23;78.67;100858.84;5086056;28;20237;-64
2022/07/21 03:12:01;;;;;;;18.20;14.07;;;;;;;24.24;78.84;100858.63;5081174;28;20309;-64
2022/07/21 03:14:28;;;;;;;18.17;13.85;;;;;;;24.25;78.00;100852.13;5068622;28;20207;-64
2022/07/21 03:16:57;;;;;;;16.97;13.63;;;;;;;24.28;78.04;100854.38;5082430;28;20297;-64
2022/07/21 03:19:25;;;;;;;19.77;14.55;;;;;;;24.28;78.06;100853.53;5079275;28;20207;-64
2022/07/21 03:21:54;;;;;;;17.80;14.07;;;;;;;24.18;77.90;100858.66;5086768;28;20207;-65
2022/07/21 03:24:22;;;;;;;19.75;15.35;;;;;;;24.09;77.23;100863.56;5089527;28;20219;-64
2022/07/21 03:26:50;;;;;;;19.00;14.20;;;;;;;23.99;78.23;100866.00;5087334;28;20624;-64
2022/07/21 03:29:18;;;;;;;19.50;14.57;;;;;;;23.98;78.38;100864.31;5084891;28;20227;-65
2022/07/21 03:31:45;;;;;;;18.57;14.87;;;;;;;23.97;78.21;100863.50;5073076;28;20692;-64
2022/07/21 03:34:13;;;;;;;19.92;15.27;;;;;;;24.00;77.39;100867.66;5091800;28;20229;-64
2022/07/21 03:36:41;;;;;;;19.25;15.82;;;;;;;23.90;77.89;100862.75;5093968;28;20513;-64
2022/07/21 03:39:10;;;;;;;20.73;15.20;;;;;;;23.80;78.43;100870.56;5093857;28;20202;-64
2022/07/21 03:41:38;;;;;;;18.63;15.73;;;;;;;23.77;78.57;100872.88;5073900;28;20572;-64
2022/07/21 03:44:05;;;;;;;22.02;16.13;;;;;;;23.77;78.30;100876.44;5088125;28;20298;-64
2022/07/21 03:46:33;;;;;;;19.57;15.37;;;;;;;23.83;78.04;100888.25;5093897;28;20656;-64
2022/07/21 03:49:01;;;;;;;20.73;14.97;;;;;;;23.75;78.36;100886.66;5093816;28;20214;-64
2022/07/21 03:51:29;;;;;;;18.10;15.00;;;;;;;23.72;78.65;100879.00;5066100;28;20205;-65
2022/07/21 03:53:59;;;;;;;21.67;15.13;;;;;;;23.69;78.64;100887.56;5093097;28;20206;-66
2022/07/21 03:56:28;;;;;;;21.57;14.37;;;;;;;23.70;78.33;100891.91;5083022;28;20244;-64
2022/07/21 03:58:55;;;;;;;21.30;15.03;;;;;;;23.66;78.53;100892.59;5087017;28;20206;-65
2022/07/21 04:01:23;;;;;;;20.37;15.27;;;;;;;23.68;77.94;100890.47;5076850;28;20289;-65
2022/07/21 04:03:51;;;;;;;19.73;15.30;;;;;;;23.77;77.69;100889.13;5092881;28;20612;-64
2022/07/21 04:06:19;;;;;;;19.87;14.47;;;;;;;23.80;76.84;100880.56;5086830;28;20231;-66
2022/07/21 04:08:47;;;;;;;19.13;14.60;;;;;;;23.78;76.64;100880.78;5084563;28;20207;-65
2022/07/21 04:11:14;;;;;;;15.77;14.13;;;;;;;23.73;76.93;100885.25;5082288;28;20881;-65
2022/07/21 04:13:44;;;;;;;17.13;13.53;;;;;;;23.74;76.10;100881.47;5082772;28;20225;-64
2022/07/21 04:16:13;;;;;;;15.20;12.77;;;;;;;23.74;75.54;100892.31;5073866;28;20214;-65
2022/07/21 04:18:41;;;;;;;18.03;11.73;;;;;;;23.82;75.61;100894.72;5085599;28;20211;-65
2022/07/21 04:21:09;;;;;;;18.40;12.10;;;;;;;23.90;74.63;100887.13;5080873;28;20217;-65
2022/07/21 04:23:36;;;;;;;13.03;10.73;;;;;;;23.95;73.15;100884.56;5092117;28;20306;-66
2022/07/21 04:26:04;;;;;;;14.20;10.10;;;;;;;23.99;72.23;100893.06;5092477;28;20221;-63
2022/07/21 04:28:32;;;;;;;14.57;9.70;;;;;;;23.94;71.90;100891.03;5092501;28;20774;-64
2022/07/21 04:31:01;;;;;;;12.93;10.40;;;;;;;23.92;70.94;100892.31;5092966;28;20223;-64
2022/07/21 04:33:29;;;;;;;12.23;9.20;;;;;;;23.91;70.41;100885.25;5089691;28;20405;-65
2022/07/21 04:36:04;;;;;;;13.60;9.53;;;;;;;23.84;69.61;100881.75;5089773;28;20211;-65
2022/07/21 04:38:32;;;;;;;11.90;8.47;;;;;;;23.83;70.22;100882.84;5076839;28;20737;-65
2022/07/21 04:41:02;;;;;;;17.93;9.73;;;;;;;23.83;70.59;100886.38;5079531;28;20286;-65
2022/07/21 04:43:29;;;;;;;12.77;11.13;;;;;;;23.78;70.25;100888.09;5091493;28;20214;-65
2022/07/21 04:45:57;;;;;;;17.40;10.50;;;;;;;23.77;70.26;100886.44;5092218;28;20251;-65
2022/07/21 04:48:27;;;;;;;15.97;11.47;;;;;;;23.78;70.77;100893.50;5084179;28;20679;-65
2022/07/21 04:50:55;;;;;;;13.07;10.70;;;;;;;23.76;70.77;100909.13;5078070;28;20238;-65
2022/07/21 04:53:23;;;;;;;14.03;11.10;;;;;;;23.82;71.25;100906.38;5091359;28;20209;-65
2022/07/21 04:55:51;;;;;;;15.17;12.27;;;;;;;23.85;71.11;100907.78;5081958;28;20211;-65
2022/07/21 04:58:18;;;;;;;21.30;12.57;;;;;;;23.90;70.95;100918.81;5091995;28;20293;-65
2022/07/21 05:00:46;;;;;;;16.50;12.23;;;;;;;23.82;71.76;100922.63;5092174;28;20707;-65
2022/07/21 05:03:14;;;;;;;18.47;12.97;;;;;;;23.76;71.90;100928.09;5077604;28;20691;-64
2022/07/21 05:05:43;;;;;;;19.37;12.87;;;;;;;23.77;72.44;100919.75;5082970;28;20671;-65
2022/07/21 05:08:11;;;;;;;15.67;13.00;;;;;;;23.81;73.10;100925.56;5091884;28;20237;-66
2022/07/21 05:10:39;;;;;;;20.67;14.67;;;;;;;23.83;73.61;100926.16;5073667;28;20270;-65
2022/07/21 05:13:06;;;;;;;18.63;14.37;;;;;;;23.85;74.16;100924.03;5086828;28;20299;-65
2022/07/21 05:15:34;;;;;;;18.90;14.23;;;;;;;23.84;73.48;100931.34;5092184;28;20568;-65
2022/07/21 05:18:02;;;;;;;19.87;14.00;;;;;;;23.88;73.07;100929.03;5091924;28;20211;-65
2022/07/21 05:20:30;;;;;;;16.37;13.60;;;;;;;23.87;72.75;100935.50;5076802;28;20203;-65
2022/07/21 05:22:59;;;;;;;15.63;12.40;;;;;;;23.89;72.69;100944.22;5091175;28;20544;-65
2022/07/21 05:25:26;;;;;;;17.80;13.20;;;;;;;23.83;72.91;100940.53;5092134;28;20207;-63
2022/07/21 05:27:54;;;;;;;17.27;12.10;;;;;;;23.85;72.15;100940.28;5083893;28;20326;-64
2022/07/21 05:30:22;;;;;;;20.23;12.33;;;;;;;23.85;71.41;100933.00;5085875;28;20223;-63
2022/07/21 05:32:50;;;;;;;15.90;12.03;;;;;;;23.89;70.63;100938.81;5086946;28;20261;-64
2022/07/21 05:35:18;;;;;;;17.30;12.07;;;;;;;23.88;71.43;100937.16;5082814;28;20293;-64
2022/07/21 05:37:46;;;;;;;14.37;12.10;;;;;;;23.83;70.06;100940.53;5076393;28;20202;-64
2022/07/21 05:40:15;;;;;;;15.57;11.90;;;;;;;23.72;70.38;100926.91;5083586;28;20268;-64
2022/07/21 05:42:43;;;;;;;16.40;12.13;;;;;;;23.60;70.75;100935.75;5088864;28;20281;-65
2022/07/21 05:45:12;;;;;;;16.20;12.83;;;;;;;23.50;71.20;100929.16;5074938;28;20207;-65
2022/07/21 05:47:42;;;;;;;15.70;11.85;;;;;;;23.38;71.86;100931.75;5073801;28;20208;-64
2022/07/21 05:50:12;;;;;;;15.33;12.30;;;;;;;23.38;71.96;100928.22;5091220;28;20210;-65
2022/07/21 05:52:40;;;;;;;17.83;13.03;;;;;;;23.41;71.84;100930.47;5090575;28;20297;-65
2022/07/21 05:55:09;;;;;;;14.40;12.00;;;;;;;23.39;72.03;100924.47;5083371;28;20235;-65
2022/07/21 05:57:38;;;;;;;18.15;12.50;;;;;;;23.48;71.71;100925.84;5084613;28;20207;-65
2022/07/21 06:00:14;;;;;;;14.93;12.13;;;;;;;23.46;71.16;100927.94;5074565;28;20210;-65
2022/07/21 06:02:42;;;;;;;16.17;11.73;;;;;;;23.49;70.89;100936.47;5085297;28;20210;-65
2022/07/21 06:05:10;;;;;;;16.30;10.85;;;;;;;23.63;70.43;100943.44;5070353;28;20681;-64
2022/07/21 06:07:38;;;;;;;13.90;11.33;;;;;;;23.78;69.58;100942.25;5066836;28;20265;-65
2022/07/21 06:10:07;;;;;;;15.23;11.97;;;;;;;23.79;69.03;100952.03;5087930;28;20324;-64
2022/07/21 06:12:43;;;;;;;14.82;10.63;;;;;;;23.75;69.03;100954.34;5083067;28;20717;-65
2022/07/21 06:15:14;;;;;;;18.67;12.02;;;;;;;23.74;68.10;100952.72;5090261;28;20217;-65
2022/07/21 06:17:43;;;;;;;14.17;11.37;;;;;;;23.73;67.84;100956.47;5090852;28;20210;-64
2022/07/21 06:20:12;;;;;;;13.40;10.40;;;;;;;23.76;67.89;100950.59;5078610;28;20203;-64
2022/07/21 06:22:40;;;;;;;14.85;10.32;;;;;;;23.87;67.67;100951.72;5090122;28;20263;-65
2022/07/21 06:25:09;;;;;;;14.30;10.13;;;;;;;23.92;66.85;100946.50;5077196;28;20204;-65
2022/07/21 06:27:36;;;;;;;14.65;10.25;;;;;;;24.02;66.63;100944.06;5079837;28;20822;-64
2022/07/21 06:30:11;;;;;;;11.52;9.07;;;;;;;24.15;66.13;100946.66;5063609;28;20301;-65
2022/07/21 06:32:40;;;;;;;15.82;9.40;;;;;;;24.28;65.88;100946.50;5074206;28;20317;-65
2022/07/21 06:35:08;;;;;;;13.85;9.70;;;;;;;24.37;64.85;100947.84;5090572;28;20210;-65
2022/07/21 06:37:36;;;;;;;14.30;9.65;;;;;;;24.43;64.19;100950.75;5089965;28;20875;-66
2022/07/21 06:40:06;;;;;;;14.10;9.80;;;;;;;24.47;64.11;100951.91;5084343;28;20211;-65
2022/07/21 06:42:36;;;;;;;16.80;10.02;;;;;;;24.53;64.33;100945.59;5086708;28;20217;-65
2022/07/21 06:45:06;;;;;;;13.68;9.15;;;;;;;24.56;64.26;100950.56;5090405;28;20203;-66
2022/07/21 06:47:34;;;;;;;13.35;9.57;;;;;;;24.58;64.21;100959.28;5090331;28;20277;-65
2022/07/21 06:50:03;;;;;;;11.98;8.77;;;;;;;24.63;63.42;100962.13;5090084;28;20293;-65
2022/07/21 06:52:33;;;;;;;11.10;8.40;;;;;;;24.68;63.17;100965.00;5089602;28;20595;-64
2022/07/21 06:55:02;;;;;;;13.80;8.90;;;;;;;24.71;63.40;100959.13;5085631;28;20207;-65
2022/07/21 06:57:30;;;;;;;15.77;9.35;;;;;;;24.73;63.33;100962.41;5062751;28;20219;-65
2022/07/21 06:59:57;;;;;;;13.18;9.00;;;;;;;24.72;63.03;100969.72;5059843;28;20301;-65
2022/07/21 07:02:27;;;;;;;12.65;8.63;;;;;;;24.72;62.98;100975.16;5067604;28;20211;-65
2022/07/21 07:04:54;;;;;;;11.07;8.10;;;;;;;24.75;62.97;100971.16;5071258;28;20669;-64
2022/07/21 07:07:23;;;;;;;12.30;8.30;;;;;;;24.75;62.94;100971.16;5090476;28;20210;-65
2022/07/21 07:09:51;;;;;;;9.43;7.45;;;;;;;24.74;62.83;100975.75;5089348;28;20297;-65
2022/07/21 07:12:18;;;;;;;10.48;8.65;;;;;;;24.70;63.15;100976.47;5078841;28;20756;-65
2022/07/21 07:15:07;;;;;;;10.60;8.88;;;;;;;24.72;62.60;100977.03;5090008;28;20222;-66
2022/07/21 07:17:36;;;;;;;9.98;8.35;;;;;;;24.70;62.97;100980.00;5077629;28;20319;-65
2022/07/21 07:20:07;;;;;;;15.15;9.45;;;;;;;24.74;62.98;100983.91;5069661;28;20231;-65
2022/07/21 07:22:35;;;;;;;12.55;8.88;;;;;;;24.72;62.70;100983.28;5061876;28;20286;-66
2022/07/21 07:25:03;;;;;;;10.82;8.43;;;;;;;24.68;62.86;100984.00;5082026;28;20214;-65
2022/07/21 07:27:31;;;;;;;12.65;8.10;;;;;;;24.67;63.33;100985.03;5068761;28;20266;-65
2022/07/21 07:30:01;;;;;;;11.20;8.68;;;;;;;24.69;63.72;100989.19;5088444;28;20293;-66
2022/07/21 07:32:37;;;;;;;11.30;8.63;;;;;;;24.75;63.93;100992.84;5081589;28;20253;-66
2022/07/21 07:35:07;;;;;;;10.60;8.45;;;;;;;24.72;62.74;100993.31;5088992;28;20268;-64
2022/07/21 07:37:34;;;;;;;10.13;7.78;;;;;;;24.72;61.94;100987.88;5089806;28;20286;-64
2022/07/21 07:40:04;;;;;;;9.13;7.57;;;;;;;24.77;62.04;100984.50;5083235;28;20261;-64
2022/07/21 07:42:32;;;;;;;8.73;7.43;;;;;;;24.82;61.60;100980.03;5069794;28;20204;-64
2022/07/21 07:45:00;;;;;;;10.60;7.45;;;;;;;24.88;62.09;100992.69;5071353;28;20214;-65
2022/07/21 07:47:28;;;;;;;9.70;8.07;;;;;;;25.01;61.71;100983.56;5089985;28;20574;-64
2022/07/21 07:49:57;;;;;;;10.80;7.88;;;;;;;25.15;61.29;100989.63;5093105;28;20310;-64
2022/07/21 07:52:26;;;;;;;11.15;7.63;;;;;;;25.19;60.48;100985.38;5074962;28;20714;-65
2022/07/21 07:54:53;;;;;;;9.45;7.00;;;;;;;25.26;60.42;100988.81;5068245;28;20257;-64
2022/07/21 07:57:21;;;;;;;9.52;7.38;;;;;;;25.35;60.56;100985.53;5082095;28;20536;-64
2022/07/21 07:59:49;;;;;;;10.40;7.18;;;;;;;25.49;60.18;100981.56;5078059;28;20222;-64
2022/07/21 08:02:17;;;;;;;10.25;7.28;;;;;;;25.64;59.62;100991.19;5080297;28;20520;-64
2022/07/21 08:04:45;;;;;;;9.35;7.07;;;;;;;25.67;59.07;100986.13;5070013;28;20203;-64
2022/07/21 08:07:14;;;;;;;9.30;6.85;;;;;;;25.69;58.84;100992.13;5076851;28;20207;-64
2022/07/21 08:09:42;;;;;;;9.00;7.07;;;;;;;25.73;58.91;100990.59;5092968;28;20301;-64
2022/07/21 08:12:09;;;;;;;10.07;7.13;;;;;;;25.78;58.59;100988.00;5081856;28;20222;-65
2022/07/21 08:14:38;;;;;;;11.00;7.50;;;;;;;25.93;58.05;100978.56;5080776;28;20582;-65
2022/07/21 08:17:06;;;;;;;9.75;7.07;;;;;;;26.07;57.57;100972.63;5079633;28;20246;-66
2022/07/21 08:19:34;;;;;;;10.95;6.70;;;;;;;26.12;57.40;100978.16;5085587;28;20553;-66
2022/07/21 08:22:02;;;;;;;8.90;6.80;;;;;;;26.12;56.87;100975.44;5074175;28;20212;-64
2022/07/21 08:24:42;;;;;;;10.90;7.13;;;;;;;26.01;57.28;100980.91;5080157;28;20199;-64
2022/07/21 08:27:10;;;;;;;8.75;6.13;;;;;;;25.85;57.77;100980.56;5092524;28;20212;-63
2022/07/21 08:29:38;;;;;;;13.32;6.88;;;;;;;25.77;58.04;100986.34;5092476;28;20276;-65
2022/07/21 08:32:06;;;;;;;7.93;6.30;;;;;;;25.65;57.92;100984.69;5088543;28;20695;-65
2022/07/21 08:34:34;;;;;;;8.00;6.30;;;;;;;25.58;57.83;100987.50;5087675;28;20214;-64
2022/07/21 08:37:02;;;;;;;11.70;6.60;;;;;;;25.49;58.00;100988.91;5085459;28;20307;-64
2022/07/21 08:39:29;;;;;;;10.90;7.43;;;;;;;25.42;58.56;100988.97;5075916;28;20270;-64
2022/07/21 08:42:00;;;;;;;10.77;7.18;;;;;;;25.44;59.11;100988.75;5084422;28;20599;-65
2022/07/21 08:44:28;;;;;;;11.07;7.05;;;;;;;25.45;59.58;100988.53;5093119;28;20273;-65
2022/07/21 08:46:58;;;;;;;10.10;7.60;;;;;;;25.47;59.53;100985.56;5088422;28;20229;-65
2022/07/21 08:49:26;;;;;;;9.75;6.90;;;;;;;25.52;59.42;100982.97;5078096;28;20210;-65
2022/07/21 08:51:54;;;;;;;11.68;6.82;;;;;;;25.63;59.38;100973.22;5091996;28;20206;-65
2022/07/21 08:54:22;;;;;;;9.82;6.82;;;;;;;25.88;58.67;100964.84;5082550;28;20301;-65
2022/07/21 08:56:51;;;;;;;8.38;6.75;;;;;;;26.06;58.92;100962.81;5081249;28;20293;-65
2022/07/21 08:59:20;;;;;;;8.60;6.45;;;;;;;26.32;57.81;100966.13;5091548;28;20211;-64
2022/07/21 09:01:56;;;;;;;8.82;7.05;;;;;;;26.42;55.65;100958.19;5092099;28;20281;-65
2022/07/21 09:04:26;;;;;;;9.18;6.00;;;;;;;26.62;54.30;100960.50;5091184;28;20260;-64
2022/07/21 09:06:56;;;;;;;8.10;5.78;;;;;;;26.74;53.57;100959.38;5091982;28;20260;-65
2022/07/21 09:09:25;;;;;;;7.18;6.00;;;;;;;26.88;54.19;100955.28;5092383;28;20220;-64
2022/07/21 09:11:54;;;;;;;7.30;5.82;;;;;;;26.97;53.57;100958.47;5081324;28;20294;-65
2022/07/21 09:14:29;;;;;;;7.13;5.55;;;;;;;26.98;49.85;100949.25;5091294;28;20265;-66
2022/07/21 09:16:59;;;;;;;7.97;5.63;;;;;;;27.10;50.01;100962.78;5090890;28;20288;-65
2022/07/21 09:19:38;;;;;;;9.07;5.63;;;;;;;27.02;49.96;100955.84;5077799;28;20203;-65
2022/07/21 09:22:07;;;;;;;7.22;5.55;;;;;;;27.14;50.42;100958.50;5073009;28;20217;-65
2022/07/21 09:24:39;;;;;;;7.35;5.55;;;;;;;27.24;49.72;100947.78;5091541;28;20276;-64
2022/07/21 09:27:13;;;;;;;10.15;5.53;;;;;;;27.44;49.09;100950.03;5090966;28;20210;-64
2022/07/21 09:29:46;;;;;;;9.45;5.05;;;;;;;27.53;48.71;100952.06;5080613;28;20273;-64
2022/07/21 09:32:23;;;;;;;7.10;4.95;;;;;;;27.68;47.72;100949.63;5071598;28;20268;-64
2022/07/21 09:34:53;;;;;;;7.43;5.68;;;;;;;27.77;48.93;100946.47;5091153;28;20246;-64
2022/07/21 09:37:24;;;;;;;8.27;5.13;;;;;;;27.86;48.60;100951.25;5091296;28;20216;-65
2022/07/21 09:39:53;;;;;;;7.63;5.15;;;;;;;27.96;48.18;100954.13;5082146;28;20204;-65
2022/07/21 09:42:24;;;;;;;7.03;5.68;;;;;;;28.07;48.02;100957.81;5071777;28;20234;-65
2022/07/21 09:44:55;;;;;;;6.65;5.15;;;;;;;28.05;47.75;100954.53;5080324;28;20297;-65
2022/07/21 09:47:24;;;;;;;6.38;5.32;;;;;;;27.93;48.02;100951.91;5071481;28;20635;-65
2022/07/21 09:49:57;;;;;;;6.75;5.68;;;;;;;27.82;47.89;100952.00;5086773;28;20206;-64
2022/07/21 09:52:48;;;;;;;9.02;5.72;;;;;;;27.63;48.35;100967.78;5079663;28;20238;-65
2022/07/21 09:55:22;;;;;;;8.10;5.40;;;;;;;27.42;48.90;100963.06;5069571;28;20250;-64
2022/07/21 09:57:50;;;;;;;10.40;6.05;;;;;;;27.26;49.47;100965.53;5073055;28;20246;-65
2022/07/21 10:00:20;;;;;;;8.55;5.60;;;;;;;27.31;49.96;100954.72;5091814;28;20666;-66
2022/07/21 10:02:49;;;;;;;7.35;4.82;;;;;;;27.43;48.37;100956.56;5090823;28;20706;-65
2022/07/21 10:05:19;;;;;;;7.57;5.35;;;;;;;27.41;47.58;100945.91;5090822;28;20573;-65
2022/07/21 10:07:49;;;;;;;8.30;4.53;;;;;;;27.62;46.93;100949.78;5090552;28;20719;-65
2022/07/21 10:10:18;;;;;;;5.75;4.13;;;;;;;27.88;46.78;100942.84;5087304;28;20215;-64
2022/07/21 10:12:49;;;;;;;7.35;4.82;;;;;;;28.03;45.11;100940.31;5066916;28;20207;-65
2022/07/21 10:15:19;;;;;;;7.10;3.95;;;;;;;28.07;45.42;100942.28;5070737;28;20209;-65
2022/07/21 10:18:03;;;;;;;6.78;4.22;;;;;;;28.20;44.99;100945.75;5083140;28;20233;-65
2022/07/21 10:20:35;;;;;;;6.05;4.43;;;;;;;28.13;45.02;100950.53;5078926;28;20297;-64
2022/07/21 10:23:13;;;;;;;8.27;4.78;;;;;;;28.12;45.83;100946.97;5089574;28;20206;-64
2022/07/21 10:25:47;;;;;;;8.88;4.95;;;;;;;28.23;45.95;100942.53;5090322;28;20715;-65
2022/07/21 10:28:18;;;;;;;5.50;4.25;;;;;;;28.36;45.47;100955.78;5090840;28;20713;-64
2022/07/21 10:30:48;;;;;;;8.20;5.07;;;;;;;28.44;43.82;100947.13;5090142;28;20210;-64
2022/07/21 10:33:19;;;;;;;7.45;4.72;;;;;;;28.46;43.07;100944.97;5086321;28;20295;-64
2022/07/21 10:35:49;;;;;;;9.02;4.28;;;;;;;28.47;42.47;100935.72;5073513;28;20195;-65
2022/07/21 10:38:28;;;;;;;6.25;5.00;;;;;;;28.34;43.15;100947.00;5073714;28;20617;-65
2022/07/21 10:40:56;;;;;;;7.50;4.53;;;;;;;28.19;43.23;100944.09;5070148;28;20207;-64
2022/07/21 10:43:43;;;;;;;6.65;4.80;;;;;;;28.12;43.54;100937.97;5079825;28;20341;-64
2022/07/21 10:46:36;;;;;;;8.95;4.85;;;;;;;28.23;43.82;100935.16;5086042;28;20307;-65
2022/07/21 10:49:08;;;;;;;8.43;4.90;;;;;;;28.32;43.19;100943.75;5073432;28;20652;-65
2022/07/21 10:51:37;;;;;;;7.78;4.38;;;;;;;28.43;42.80;100940.03;5090244;28;20228;-65
2022/07/21 10:54:36;;;;;;;7.15;5.28;;;;;;;28.55;43.15;100921.63;5089396;28;20226;-65
2022/07/21 11:08:21;;;;;;;8.77;5.18;;;;;;;29.43;41.15;100931.25;5089753;28;20587;-65
2022/07/21 11:10:51;;;;;;;8.23;5.45;;;;;;;29.51;40.34;100927.22;5071580;28;20235;-65
2022/07/21 11:13:22;;;;;;;9.00;5.43;;;;;;;29.58;39.91;100924.25;5068249;28;20227;-65
2022/07/21 11:15:56;;;;;;;8.90;5.43;;;;;;;29.61;40.12;100910.06;5087017;28;20202;-64
2022/07/21 11:18:26;;;;;;;6.32;5.28;;;;;;;29.67;39.82;100912.56;5084500;28;20593;-64
2022/07/21 11:21:18;;;;;;;8.50;5.45;;;;;;;29.90;39.52;100905.88;5074204;28;20354;-65
2022/07/21 11:23:49;;;;;;;5.95;5.05;;;;;;;29.97;39.69;100911.94;5093335;28;20668;-65
2022/07/21 11:26:20;;;;;;;10.48;5.05;;;;;;;30.03;39.56;100910.88;5093837;28;20640;-65
2022/07/21 11:28:48;;;;;;;6.28;4.90;;;;;;;30.02;39.34;100901.03;5094675;28;20234;-64
2022/07/21 11:31:21;;;;;;;7.85;5.25;;;;;;;29.91;38.98;100905.59;5094822;28;20660;-64
2022/07/21 11:33:50;;;;;;;8.45;5.45;;;;;;;29.84;39.12;100906.91;5070466;28;20284;-64
2022/07/21 11:36:27;;;;;;;6.50;4.90;;;;;;;29.92;39.15;100898.22;5072305;28;20215;-65
2022/07/21 11:39:06;;;;;;;9.63;5.45;;;;;;;29.76;39.29;100899.22;5072984;28;20608;-65